Terminal Aerodrome Forecast
Issued by NWS

Home | Current Version | Previous Version | Graphics & Text | Print | Product List | Glossary On
Versions: 1 2 3 4 5 6 7 8 9 10 11 12 13 14 15 16 17 18 19 20 21 22 23 24 25 26 27 28 29 30 31 32 33 34 35 36
000
FTUS43 KLOT 140320 AAA
TAFORD
TAF AMD
KORD 140320Z 1403/1506 06008KT P6SM FEW030 OVC050
     FM140400 06008KT 6SM BR VCSH SCT020 OVC040
     FM140800 08006KT 5SM SHRA BR VCTS SCT007 OVC015CB
      TEMPO 1409/1412 3SM SHRA OVC010
     FM141300 12007KT 6SM BR VCSH SCT006 OVC009
     FM141800 18010KT 5SM -SHRA BR BKN015 OVC040
     FM150000 19013KT 6SM -SHRA BR BKN030
      TEMPO 1504/1506 2SM TSRA OVC015CB=

USA.gov is the U.S. government's official web portal to all federal, state and local government web resources and services.